Time;durP1;ratioP1;P1;durP2;ratioP2;P2;SDS_P1;SDS_P2;PMS_P1;PMS_P2;Temp;Humidity;BMP_temperature;BMP_pressure;BME280_temperature;BME280_humidity;BME280_pressure;Samples;Min_cycle;Max_cycle;Signal;HPM_P1;HPM_P2
2021/08/19 00:00:35;;;;;;;6.20;4.43;;;21.00;66.00;;;;;;5071795;28;20044;-77
2021/08/19 00:03:01;;;;;;;5.53;4.35;;;21.00;66.10;;;;;;5039448;28;20145;-76
2021/08/19 00:05:27;;;;;;;5.15;3.60;;;21.00;66.10;;;;;;5055767;28;20044;-76
2021/08/19 00:07:55;;;;;;;7.25;4.70;;;21.00;66.20;;;;;;5055334;28;20049;-77
2021/08/19 00:10:21;;;;;;;6.00;4.40;;;21.00;66.20;;;;;;5072761;28;20032;-77
2021/08/19 00:12:47;;;;;;;5.30;4.20;;;20.90;66.20;;;;;;5071597;28;20024;-77
2021/08/19 00:15:13;;;;;;;6.63;4.75;;;20.90;66.20;;;;;;5056022;28;20031;-76
2021/08/19 00:17:39;;;;;;;5.40;4.07;;;20.90;66.30;;;;;;5055007;28;20036;-77
2021/08/19 00:20:05;;;;;;;5.72;4.35;;;20.90;66.20;;;;;;5057931;28;20036;-76
2021/08/19 00:22:31;;;;;;;5.97;3.97;;;20.90;66.30;;;;;;5073701;28;20029;-77
2021/08/19 00:24:58;;;;;;;5.72;4.22;;;20.90;66.30;;;;;;5071801;28;20028;-76
2021/08/19 00:27:24;;;;;;;6.45;4.63;;;20.90;66.30;;;;;;5072569;28;20054;-76
2021/08/19 00:29:50;;;;;;;5.15;3.97;;;20.90;66.30;;;;;;5055043;28;20119;-76
2021/08/19 00:32:16;;;;;;;5.55;4.07;;;20.90;66.20;;;;;;5072852;28;20411;-76
2021/08/19 00:34:41;;;;;;;5.60;4.15;;;20.90;66.20;;;;;;5071679;28;20152;-77
2021/08/19 00:37:08;;;;;;;5.45;3.72;;;20.90;66.20;;;;;;5055082;28;20024;-77
2021/08/19 00:39:35;;;;;;;4.90;3.53;;;20.90;66.80;;;;;;5038103;28;20032;-78
2021/08/19 00:42:01;;;;;;;5.55;3.83;;;20.80;66.20;;;;;;5055340;28;20062;-76
2021/08/19 00:44:27;;;;;;;5.55;3.95;;;20.80;66.10;;;;;;5072961;28;20124;-78
2021/08/19 00:46:52;;;;;;;7.07;4.60;;;20.80;66.30;;;;;;5055124;28;20052;-77
2021/08/19 00:49:18;;;;;;;5.70;4.00;;;20.80;66.10;;;;;;5054975;28;20115;-76
2021/08/19 00:51:54;;;;;;;5.07;3.85;;;20.80;66.20;;;;;;5072885;28;20473;-77
2021/08/19 00:54:26;;;;;;;5.55;4.32;;;20.80;66.20;;;;;;5056784;28;20047;-77
2021/08/19 00:57:00;;;;;;;5.45;4.13;;;20.80;66.80;;;;;;5071241;28;20037;-77
2021/08/19 00:59:37;;;;;;;5.63;4.28;;;20.80;66.20;;;;;;5071281;28;20052;-76
2021/08/19 01:02:07;;;;;;;5.47;4.10;;;20.80;66.30;;;;;;5071100;28;20037;-77
2021/08/19 01:04:39;;;;;;;5.75;4.03;;;20.80;66.10;;;;;;5054810;28;20090;-77
2021/08/19 01:07:06;;;;;;;5.50;4.10;;;20.80;66.20;;;;;;5072503;28;20112;-76
2021/08/19 01:09:32;;;;;;;5.60;4.10;;;20.80;66.20;;;;;;5038474;28;20032;-77
2021/08/19 01:11:58;;;;;;;5.03;4.00;;;20.70;66.10;;;;;;5070609;28;20024;-78
2021/08/19 01:14:24;;;;;;;5.78;4.32;;;20.70;66.10;;;;;;5054546;28;20476;-77
2021/08/19 01:16:50;;;;;;;4.75;3.55;;;20.80;66.10;;;;;;5071216;28;20522;-77
2021/08/19 01:19:22;;;;;;;5.90;3.92;;;20.70;66.00;;;;;;5054309;28;20052;-76
2021/08/19 01:21:50;;;;;;;6.03;4.18;;;20.70;66.10;;;;;;5054288;28;20036;-76
2021/08/19 01:24:16;;;;;;;5.50;4.22;;;20.70;66.00;;;;;;5053905;28;20392;-76
2021/08/19 01:26:42;;;;;;;5.07;3.75;;;20.70;66.00;;;;;;5072013;28;20032;-76
2021/08/19 01:29:08;;;;;;;5.25;4.00;;;20.70;66.00;;;;;;5054072;28;20468;-77
2021/08/19 01:31:35;;;;;;;5.45;3.83;;;20.70;65.90;;;;;;5071956;28;20028;-76
2021/08/19 01:34:01;;;;;;;4.93;3.67;;;20.60;65.90;;;;;;5070717;28;20119;-76
2021/08/19 01:36:28;;;;;;;5.65;4.07;;;20.60;65.90;;;;;;5070078;28;20024;-76
2021/08/19 01:38:55;;;;;;;5.45;3.78;;;20.70;65.90;;;;;;5070938;28;20075;-77
2021/08/19 01:41:21;;;;;;;4.90;3.60;;;20.60;65.90;;;;;;5070687;28;20108;-77
2021/08/19 01:43:49;;;;;;;5.18;3.65;;;20.60;65.90;;;;;;5037201;28;20440;-77
2021/08/19 01:46:15;;;;;;;4.90;3.58;;;20.70;65.90;;;;;;5053860;28;20032;-77
2021/08/19 01:48:50;;;;;;;5.63;3.85;;;20.60;66.00;;;;;;5070306;28;20051;-77
2021/08/19 01:51:17;;;;;;;4.85;3.53;;;20.60;66.00;;;;;;5037227;28;20059;-76
2021/08/19 01:53:44;;;;;;;5.72;4.05;;;20.60;65.90;;;;;;5070420;28;20067;-77
2021/08/19 01:56:11;;;;;;;5.28;4.10;;;20.60;65.90;;;;;;5070512;28;20024;-77
2021/08/19 01:58:37;;;;;;;4.97;3.80;;;20.60;66.00;;;;;;5101367;28;20049;-77
2021/08/19 02:01:02;;;;;;;6.30;4.05;;;20.60;66.00;;;;;;5053220;28;20051;-77
2021/08/19 02:03:28;;;;;;;5.05;3.90;;;20.60;65.90;;;;;;5069170;28;20032;-77
2021/08/19 02:05:54;;;;;;;5.60;3.95;;;20.60;65.90;;;;;;5053555;28;20039;-77
2021/08/19 02:08:20;;;;;;;5.57;3.95;;;20.60;65.90;;;;;;5069921;28;20035;-77
2021/08/19 02:10:46;;;;;;;4.90;3.80;;;20.60;65.90;;;;;;5069883;28;20032;-77
2021/08/19 02:13:13;;;;;;;5.05;3.72;;;20.60;65.90;;;;;;5053567;28;20058;-76
2021/08/19 02:15:39;;;;;;;5.95;4.20;;;20.60;66.00;;;;;;5070855;28;20029;-77
2021/08/19 02:18:05;;;;;;;5.35;4.00;;;20.60;65.90;;;;;;5070317;28;20031;-77
2021/08/19 02:20:31;;;;;;;5.80;4.22;;;20.60;66.00;;;;;;5070056;28;20049;-77
2021/08/19 02:22:59;;;;;;;5.20;3.90;;;20.60;66.00;;;;;;5070210;28;20480;-77
2021/08/19 02:25:25;;;;;;;5.30;3.53;;;20.50;66.00;;;;;;5053003;28;20070;-77
2021/08/19 02:27:51;;;;;;;5.40;3.90;;;20.60;66.00;;;;;;5053122;28;20055;-76
2021/08/19 02:30:48;;;;;;;5.28;3.70;;;20.60;65.40;;;;;;5081975;27;1281359;-74
2021/08/19 02:33:14;;;;;;;5.35;3.92;;;20.60;65.90;;;;;;5058099;28;20119;-75
2021/08/19 02:35:40;;;;;;;4.95;3.58;;;20.60;65.90;;;;;;5073965;28;20115;-75
2021/08/19 02:38:06;;;;;;;5.80;3.90;;;20.60;65.90;;;;;;5074216;28;20023;-75
2021/08/19 02:40:35;;;;;;;6.18;3.63;;;20.50;65.90;;;;;;5073720;28;20028;-74
2021/08/19 02:43:01;;;;;;;5.85;4.07;;;20.60;66.30;;;;;;5109717;28;20098;-75
2021/08/19 02:45:26;;;;;;;5.50;3.92;;;20.50;65.90;;;;;;5090719;28;20028;-75
2021/08/19 02:47:52;;;;;;;5.90;4.10;;;20.50;65.90;;;;;;5090646;28;20023;-74
2021/08/19 02:50:18;;;;;;;5.32;3.67;;;20.50;65.90;;;;;;5091025;28;20040;-74
2021/08/19 02:52:44;;;;;;;5.45;4.15;;;20.50;65.90;;;;;;5090578;28;20392;-75
2021/08/19 02:55:10;;;;;;;5.72;4.03;;;20.50;65.90;;;;;;5108935;28;20099;-74
2021/08/19 02:57:36;;;;;;;5.57;4.15;;;20.50;65.90;;;;;;5108259;28;20035;-74
2021/08/19 03:00:04;;;;;;;6.22;4.18;;;20.50;65.90;;;;;;5108904;28;20023;-75
2021/08/19 03:02:30;;;;;;;4.88;3.80;;;20.50;65.90;;;;;;5074066;28;20020;-74
2021/08/19 03:04:55;;;;;;;6.30;4.28;;;20.50;65.90;;;;;;5090281;28;20032;-77
2021/08/19 03:07:23;;;;;;;5.43;3.78;;;20.50;65.90;;;;;;5073751;28;20032;-77
2021/08/19 03:09:49;;;;;;;6.40;4.63;;;20.50;65.90;;;;;;5073268;28;20403;-78
2021/08/19 03:12:15;;;;;;;4.45;3.50;;;20.50;65.90;;;;;;5073721;28;20103;-78
2021/08/19 03:14:41;;;;;;;5.28;3.97;;;20.60;66.00;;;;;;5073343;28;20123;-77
2021/08/19 03:17:07;;;;;;;5.85;4.20;;;20.50;66.00;;;;;;5073629;28;20058;-77
2021/08/19 03:19:35;;;;;;;5.70;4.13;;;20.50;65.90;;;;;;5073838;28;20024;-77
2021/08/19 03:22:01;;;;;;;5.82;4.10;;;20.50;66.00;;;;;;5107473;28;20038;-77
2021/08/19 03:24:28;;;;;;;6.30;3.83;;;20.60;66.00;;;;;;5090367;28;20020;-74
2021/08/19 03:26:54;;;;;;;5.20;4.00;;;20.50;66.00;;;;;;5107744;28;20111;-77
2021/08/19 03:29:20;;;;;;;6.00;4.57;;;20.50;66.00;;;;;;5089876;28;20495;-77
2021/08/19 03:31:46;;;;;;;6.00;4.65;;;20.50;66.80;;;;;;5039985;28;20038;-77
2021/08/19 03:34:12;;;;;;;5.65;4.50;;;20.50;66.00;;;;;;5072901;28;20062;-77
2021/08/19 03:36:38;;;;;;;6.15;4.85;;;20.50;66.20;;;;;;5073712;28;20024;-77
2021/08/19 03:39:05;;;;;;;5.53;4.15;;;20.50;66.10;;;;;;5039642;28;20059;-77
2021/08/19 03:41:32;;;;;;;6.10;4.53;;;20.50;66.10;;;;;;5088736;28;20404;-77
2021/08/19 03:43:58;;;;;;;5.80;4.45;;;20.50;66.10;;;;;;5093497;28;20059;-79
2021/08/19 03:46:25;;;;;;;5.95;4.40;;;20.50;66.20;;;;;;5076539;28;20118;-77
2021/08/19 03:48:51;;;;;;;6.32;4.57;;;20.50;66.20;;;;;;5075605;28;20032;-78
2021/08/19 03:51:16;;;;;;;6.03;4.88;;;20.50;66.20;;;;;;5060347;28;20032;-77
2021/08/19 03:53:43;;;;;;;6.25;4.60;;;20.50;66.20;;;;;;5076095;28;20063;-77
2021/08/19 03:56:08;;;;;;;6.05;4.35;;;20.60;66.20;;;;;;5058716;28;20064;-77
2021/08/19 03:58:36;;;;;;;6.18;4.40;;;20.50;66.20;;;;;;5076477;28;20055;-77
2021/08/19 04:01:03;;;;;;;6.15;4.18;;;20.50;66.20;;;;;;5059020;28;20032;-77
2021/08/19 04:03:29;;;;;;;6.28;4.78;;;20.50;66.20;;;;;;5093808;28;20023;-78
2021/08/19 04:05:55;;;;;;;6.28;4.35;;;20.50;66.20;;;;;;5075390;28;20028;-77
2021/08/19 04:08:20;;;;;;;5.90;4.15;;;20.50;66.20;;;;;;5059600;28;20027;-78
2021/08/19 04:10:46;;;;;;;5.13;4.25;;;20.50;66.20;;;;;;5042844;28;20392;-77
2021/08/19 04:13:14;;;;;;;5.13;4.07;;;20.50;66.20;;;;;;5075349;28;20376;-74
2021/08/19 04:15:40;;;;;;;5.38;4.32;;;20.50;66.20;;;;;;5075844;28;20464;-77
2021/08/19 04:18:05;;;;;;;6.32;4.40;;;20.50;66.20;;;;;;5058604;28;20086;-76
2021/08/19 04:20:31;;;;;;;5.65;4.30;;;20.60;66.30;;;;;;5059548;28;20036;-78
2021/08/19 04:22:57;;;;;;;5.20;3.95;;;20.50;66.30;;;;;;5075034;28;20032;-77
2021/08/19 04:25:23;;;;;;;4.85;3.70;;;20.60;66.30;;;;;;5059285;28;20468;-77
2021/08/19 04:27:48;;;;;;;5.22;3.83;;;20.50;66.30;;;;;;5094319;28;20035;-77
2021/08/19 04:30:14;;;;;;;5.68;4.00;;;20.50;66.20;;;;;;5074663;28;20087;-77
2021/08/19 04:32:40;;;;;;;5.00;3.90;;;20.50;66.30;;;;;;5042529;28;20537;-77
2021/08/19 04:35:06;;;;;;;5.90;3.80;;;20.50;66.30;;;;;;5056527;28;20024;-77
2021/08/19 04:37:34;;;;;;;5.53;3.95;;;20.50;66.20;;;;;;5075476;28;20036;-76
2021/08/19 04:40:00;;;;;;;5.85;3.95;;;20.50;66.20;;;;;;5074860;28;20082;-77
2021/08/19 04:42:26;;;;;;;5.30;3.83;;;20.50;66.30;;;;;;5058615;28;20020;-77
2021/08/19 04:44:52;;;;;;;5.85;3.88;;;20.50;66.30;;;;;;5059200;28;20568;-77
2021/08/19 04:47:18;;;;;;;4.38;3.53;;;20.50;66.20;;;;;;5092714;28;20032;-78
2021/08/19 04:49:44;;;;;;;5.07;3.50;;;20.50;66.20;;;;;;5075329;28;20043;-76
2021/08/19 04:52:09;;;;;;;3.72;2.88;;;20.50;66.20;;;;;;5091960;28;20491;-77
2021/08/19 04:54:35;;;;;;;5.07;3.47;;;20.50;66.30;;;;;;5075464;28;21886;-76
2021/08/19 04:57:01;;;;;;;4.47;3.17;;;20.50;66.20;;;;;;5075004;28;20032;-77
2021/08/19 04:59:27;;;;;;;4.93;3.67;;;20.50;66.20;;;;;;5074937;28;20031;-76
2021/08/19 05:01:52;;;;;;;5.07;3.63;;;20.50;66.70;;;;;;5042007;28;20058;-76
2021/08/19 05:04:18;;;;;;;4.68;3.20;;;20.50;66.20;;;;;;5025128;28;20028;-76
2021/08/19 05:06:44;;;;;;;4.15;2.85;;;20.50;66.30;;;;;;5074762;28;20429;-76
2021/08/19 05:09:10;;;;;;;4.57;3.22;;;20.40;66.20;;;;;;5041355;28;20473;-76
2021/08/19 05:11:35;;;;;;;4.88;3.40;;;20.50;66.20;;;;;;5074443;28;20042;-76
2021/08/19 05:14:03;;;;;;;4.95;3.40;;;20.50;66.30;;;;;;5092534;28;20046;-76
2021/08/19 05:16:31;;;;;;;4.70;3.30;;;20.40;66.20;;;;;;5074876;28;20357;-77
2021/08/19 05:18:57;;;;;;;4.53;3.40;;;20.50;66.90;;;;;;5092010;28;20209;-76
2021/08/19 05:21:23;;;;;;;4.80;3.35;;;20.40;66.20;;;;;;5092184;28;20028;-76
2021/08/19 05:23:49;;;;;;;4.25;3.13;;;20.50;66.30;;;;;;5041234;28;20032;-77
2021/08/19 05:26:16;;;;;;;4.65;3.47;;;20.50;66.30;;;;;;5057663;28;20445;-76
2021/08/19 05:28:42;;;;;;;5.47;3.38;;;20.40;66.20;;;;;;5074512;28;20028;-76
2021/08/19 05:31:08;;;;;;;4.05;3.13;;;20.40;66.20;;;;;;5092089;28;20979;-77
2021/08/19 05:33:35;;;;;;;5.05;3.53;;;20.50;66.30;;;;;;5074489;28;20054;-77
2021/08/19 05:36:00;;;;;;;5.00;3.80;;;20.50;66.30;;;;;;5073518;28;20051;-78
2021/08/19 05:38:26;;;;;;;4.72;3.50;;;20.40;66.30;;;;;;5057772;28;20032;-76
2021/08/19 05:40:52;;;;;;;5.03;3.25;;;20.40;66.30;;;;;;5074521;28;20377;-77
2021/08/19 05:43:19;;;;;;;5.45;3.63;;;20.40;66.30;;;;;;5073836;28;20034;-77
2021/08/19 05:45:45;;;;;;;4.40;3.35;;;20.40;66.30;;;;;;5074041;28;20024;-77
2021/08/19 05:48:10;;;;;;;5.00;3.60;;;20.40;66.30;;;;;;5056989;28;20454;-77
2021/08/19 05:50:36;;;;;;;5.00;3.70;;;20.40;66.30;;;;;;5091760;28;20105;-77
2021/08/19 05:53:03;;;;;;;4.63;3.53;;;20.40;66.30;;;;;;5073884;28;20039;-76
2021/08/19 05:55:29;;;;;;;5.40;4.07;;;20.40;66.30;;;;;;5091357;28;20519;-77
2021/08/19 05:57:55;;;;;;;5.82;3.70;;;20.40;66.30;;;;;;5074223;28;20024;-77
2021/08/19 06:00:21;;;;;;;4.82;3.75;;;20.40;66.30;;;;;;5073111;28;20446;-76
2021/08/19 06:02:51;;;;;;;5.43;3.70;;;20.40;66.30;;;;;;5074532;28;20036;-76
2021/08/19 06:05:17;;;;;;;5.10;3.88;;;20.40;66.40;;;;;;5056534;28;20551;-77
2021/08/19 06:07:43;;;;;;;5.78;3.80;;;20.40;66.40;;;;;;5073993;28;20533;-77
2021/08/19 06:10:10;;;;;;;4.60;3.72;;;20.40;66.40;;;;;;5073553;28;20044;-77
2021/08/19 06:12:36;;;;;;;5.38;3.70;;;20.40;66.40;;;;;;5091097;28;20078;-77
2021/08/19 06:15:03;;;;;;;5.70;4.18;;;20.40;66.50;;;;;;5074506;28;20040;-77
2021/08/19 06:17:29;;;;;;;6.68;3.85;;;20.40;66.40;;;;;;5091171;28;20046;-76
2021/08/19 06:19:55;;;;;;;5.50;4.03;;;20.40;66.40;;;;;;5040715;28;20028;-76
2021/08/19 06:22:21;;;;;;;5.72;3.97;;;20.40;66.40;;;;;;5072884;28;20024;-77
2021/08/19 06:24:47;;;;;;;5.47;3.85;;;20.40;66.50;;;;;;5073134;28;20365;-76
2021/08/19 06:27:13;;;;;;;5.82;4.20;;;20.40;66.50;;;;;;5091430;28;20039;-76
2021/08/19 06:29:39;;;;;;;5.57;4.13;;;20.40;66.50;;;;;;5091319;28;20056;-76
2021/08/19 06:32:05;;;;;;;5.63;4.13;;;20.40;66.50;;;;;;5056936;28;20031;-78
2021/08/19 06:34:31;;;;;;;5.53;4.20;;;20.40;66.50;;;;;;5056444;28;20031;-78
2021/08/19 06:36:57;;;;;;;6.20;4.13;;;20.40;66.50;;;;;;5056670;28;20016;-77
2021/08/19 06:39:22;;;;;;;5.05;3.67;;;20.40;66.50;;;;;;5072943;28;20044;-76
2021/08/19 06:41:48;;;;;;;5.65;3.97;;;20.40;66.50;;;;;;5039692;28;20055;-76
2021/08/19 06:44:14;;;;;;;5.95;4.18;;;20.50;66.60;;;;;;5091472;28;20123;-77
2021/08/19 06:46:39;;;;;;;6.13;4.15;;;20.40;66.50;;;;;;5073019;28;20032;-77
2021/08/19 06:49:05;;;;;;;5.82;3.97;;;20.50;66.60;;;;;;5056925;28;20032;-77
2021/08/19 06:51:31;;;;;;;5.50;3.92;;;20.50;66.60;;;;;;5073229;28;20032;-77
2021/08/19 06:53:57;;;;;;;5.63;3.83;;;20.40;66.50;;;;;;5056553;28;20089;-77
2021/08/19 06:56:23;;;;;;;5.85;4.10;;;20.50;66.60;;;;;;5073088;28;20039;-77
2021/08/19 06:58:50;;;;;;;5.03;3.85;;;20.50;66.60;;;;;;5072960;28;20056;-77
2021/08/19 07:01:15;;;;;;;4.78;3.63;;;20.50;66.60;;;;;;5056447;28;20538;-77
2021/08/19 07:03:41;;;;;;;5.72;3.97;;;20.40;66.50;;;;;;5090928;28;20028;-77
2021/08/19 07:06:11;;;;;;;6.65;4.75;;;20.50;66.60;;;;;;5072531;28;20080;-77
2021/08/19 07:08:37;;;;;;;5.63;3.80;;;20.50;66.60;;;;;;5073052;28;20472;-77
2021/08/19 07:11:03;;;;;;;5.50;3.90;;;20.50;66.60;;;;;;5056339;28;20048;-77
2021/08/19 07:13:29;;;;;;;5.70;3.75;;;20.50;67.30;;;;;;5073335;28;20028;-77
2021/08/19 07:15:54;;;;;;;4.97;3.95;;;20.50;66.60;;;;;;5057023;28;20515;-77
2021/08/19 07:18:20;;;;;;;5.10;3.67;;;20.50;66.60;;;;;;5076881;28;20024;-76
2021/08/19 07:20:46;;;;;;;5.15;4.00;;;20.50;66.60;;;;;;5076955;28;20358;-76
2021/08/19 07:23:12;;;;;;;6.05;3.80;;;20.50;66.60;;;;;;5042566;28;20392;-77
2021/08/19 07:25:37;;;;;;;5.18;3.90;;;20.50;66.60;;;;;;5060173;28;20020;-76
2021/08/19 07:28:04;;;;;;;5.82;4.03;;;20.50;66.60;;;;;;5076688;28;20032;-77
2021/08/19 07:30:30;;;;;;;5.57;4.30;;;20.50;66.70;;;;;;5042980;28;20116;-77
2021/08/19 07:32:57;;;;;;;5.82;4.32;;;20.50;66.70;;;;;;5076884;28;20032;-76
2021/08/19 07:35:23;;;;;;;5.40;4.25;;;20.50;66.70;;;;;;5075503;28;20028;-76
2021/08/19 07:37:52;;;;;;;5.57;4.00;;;20.50;66.70;;;;;;5060138;28;20035;-76
2021/08/19 07:40:20;;;;;;;6.05;4.20;;;20.50;66.70;;;;;;5093920;28;20117;-76
2021/08/19 07:42:46;;;;;;;5.47;3.90;;;20.50;66.70;;;;;;5076359;28;20486;-76
2021/08/19 07:45:14;;;;;;;5.45;4.35;;;20.50;66.70;;;;;;5059124;28;20361;-78
2021/08/19 07:47:40;;;;;;;5.38;3.95;;;20.50;66.70;;;;;;5059721;28;20476;-77
2021/08/19 07:50:06;;;;;;;7.30;4.78;;;20.50;66.70;;;;;;5059420;28;20028;-78
2021/08/19 07:52:32;;;;;;;6.20;4.32;;;20.50;66.70;;;;;;5058878;28;20290;-76
2021/08/19 07:54:58;;;;;;;5.90;4.13;;;20.50;66.70;;;;;;5076589;28;20465;-77
2021/08/19 07:57:24;;;;;;;5.57;4.45;;;20.60;66.90;;;;;;5059662;28;20036;-77
2021/08/19 07:59:50;;;;;;;6.45;4.30;;;20.50;66.80;;;;;;5076199;28;20470;-76
2021/08/19 08:02:16;;;;;;;5.85;4.20;;;20.60;66.80;;;;;;5059092;28;20034;-77
2021/08/19 08:04:41;;;;;;;5.85;3.97;;;20.60;66.80;;;;;;5042930;28;20036;-76
2021/08/19 08:07:07;;;;;;;6.75;4.75;;;20.60;66.90;;;;;;5093844;28;20035;-77
2021/08/19 08:09:33;;;;;;;6.28;4.57;;;20.60;66.90;;;;;;5058947;28;20801;-77
2021/08/19 08:11:59;;;;;;;6.05;4.68;;;20.60;66.90;;;;;;5076180;28;20043;-76
2021/08/19 08:14:26;;;;;;;6.75;4.57;;;20.60;66.90;;;;;;5075530;28;20103;-76
2021/08/19 08:16:52;;;;;;;5.88;4.35;;;20.60;67.00;;;;;;5075948;28;20028;-77
2021/08/19 08:19:18;;;;;;;7.03;4.93;;;20.60;67.00;;;;;;5075659;28;20032;-77
2021/08/19 08:21:44;;;;;;;6.63;4.75;;;20.60;67.00;;;;;;5093061;28;20039;-77
2021/08/19 08:24:11;;;;;;;5.80;4.25;;;20.60;67.00;;;;;;5075995;28;20050;-77
2021/08/19 08:26:38;;;;;;;5.70;4.53;;;20.60;67.00;;;;;;5056861;28;20384;-77
2021/08/19 08:29:04;;;;;;;5.90;4.45;;;20.60;67.00;;;;;;5086392;28;20028;-76
2021/08/19 08:31:33;;;;;;;5.22;4.10;;;20.60;67.10;;;;;;5093852;28;20013;-78
2021/08/19 08:33:59;;;;;;;5.85;4.45;;;20.60;67.10;;;;;;5078075;28;20032;-77
2021/08/19 08:36:25;;;;;;;5.75;4.60;;;20.70;67.10;;;;;;5042210;28;20028;-77
2021/08/19 08:38:51;;;;;;;5.63;4.55;;;20.70;67.10;;;;;;5058488;28;20114;-77
2021/08/19 08:41:20;;;;;;;5.43;3.97;;;20.70;67.10;;;;;;5075628;28;20035;-76
2021/08/19 08:43:49;;;;;;;6.20;3.97;;;20.70;67.10;;;;;;5074953;28;20060;-76
2021/08/19 08:46:18;;;;;;;5.65;4.22;;;20.70;67.10;;;;;;5075383;28;20032;-77
2021/08/19 08:48:44;;;;;;;5.63;4.45;;;20.70;67.20;;;;;;5074488;28;20028;-77
2021/08/19 08:51:10;;;;;;;7.75;4.35;;;20.70;67.20;;;;;;5092736;28;20495;-77
2021/08/19 08:53:36;;;;;;;5.65;4.40;;;20.70;67.20;;;;;;5074853;28;20028;-77
2021/08/19 08:56:03;;;;;;;6.07;4.47;;;20.70;67.20;;;;;;5075583;28;20388;-76
2021/08/19 08:58:28;;;;;;;5.47;4.38;;;20.70;67.20;;;;;;5058338;28;20492;-77
2021/08/19 09:00:54;;;;;;;5.75;4.30;;;20.70;67.30;;;;;;5074604;28;20039;-77
2021/08/19 09:03:21;;;;;;;5.40;4.00;;;20.70;67.20;;;;;;5074826;28;20032;-78
2021/08/19 09:05:52;;;;;;;5.28;3.97;;;20.80;67.30;;;;;;5057952;28;20055;-77
2021/08/19 09:08:19;;;;;;;5.53;4.18;;;20.80;67.30;;;;;;5058219;28;20016;-76
2021/08/19 09:10:46;;;;;;;6.40;4.57;;;20.70;67.20;;;;;;5074230;28;20051;-77
2021/08/19 09:13:15;;;;;;;6.85;4.50;;;20.80;67.40;;;;;;5042789;28;20036;-76
2021/08/19 09:15:43;;;;;;;6.13;4.47;;;20.80;67.50;;;;;;5092830;28;20081;-76
2021/08/19 09:18:10;;;;;;;5.43;4.07;;;20.80;67.60;;;;;;5099744;28;20020;-78
2021/08/19 09:20:41;;;;;;;6.28;4.53;;;20.80;67.60;;;;;;5092582;28;20032;-77
2021/08/19 09:23:14;;;;;;;6.20;4.60;;;20.80;67.70;;;;;;5074177;28;20035;-78
2021/08/19 09:25:45;;;;;;;6.55;4.60;;;20.80;67.70;;;;;;5092867;28;20028;-77
2021/08/19 09:28:25;;;;;;;5.70;4.20;;;20.80;67.70;;;;;;5074026;28;20032;-76
2021/08/19 09:31:08;;;;;;;6.35;4.25;;;20.80;67.70;;;;;;5092000;28;20056;-77
2021/08/19 09:33:41;;;;;;;5.35;4.18;;;20.80;67.80;;;;;;5081788;28;20061;-77
2021/08/19 09:36:07;;;;;;;5.90;4.28;;;20.80;67.80;;;;;;5091919;28;20092;-77
2021/08/19 09:38:38;;;;;;;5.10;3.95;;;20.80;67.80;;;;;;5056875;28;20480;-78
2021/08/19 09:41:13;;;;;;;5.40;3.85;;;20.80;67.80;;;;;;5057276;28;20028;-77
2021/08/19 09:43:46;;;;;;;;;;;20.80;67.90;;;;;;5058494;28;20036;-78
2021/08/19 09:46:14;;;;;;;5.88;3.72;;;20.80;67.70;;;;;;5089766;28;19908;-77
2021/08/19 09:48:44;;;;;;;6.65;4.35;;;20.80;67.70;;;;;;5073571;28;20024;-77
2021/08/19 09:51:11;;;;;;;6.47;4.35;;;20.80;67.90;;;;;;5074498;28;20476;-77
2021/08/19 09:53:44;;;;;;;5.63;4.28;;;20.80;67.90;;;;;;5057112;28;20484;-77
2021/08/19 09:56:12;;;;;;;6.32;4.38;;;20.80;68.10;;;;;;5074095;28;20039;-77
2021/08/19 09:58:38;;;;;;;5.32;4.20;;;20.80;68.00;;;;;;5057111;28;20021;-77
2021/08/19 10:01:04;;;;;;;6.10;4.28;;;20.80;68.00;;;;;;5073957;28;20024;-77
2021/08/19 10:03:30;;;;;;;6.10;4.20;;;20.80;68.00;;;;;;5057557;28;20032;-77
2021/08/19 10:05:56;;;;;;;5.40;4.10;;;20.80;68.00;;;;;;5057280;28;20499;-77
2021/08/19 10:08:23;;;;;;;5.72;3.88;;;20.80;68.00;;;;;;5057167;28;20035;-77
2021/08/19 10:10:55;;;;;;;5.78;4.10;;;20.80;67.90;;;;;;5056818;28;20468;-76
2021/08/19 10:13:22;;;;;;;4.95;3.47;;;20.80;67.90;;;;;;5091575;28;20040;-77
2021/08/19 10:15:52;;;;;;;4.72;3.50;;;20.80;67.80;;;;;;5073392;28;20028;-78
2021/08/19 10:18:22;;;;;;;5.18;3.53;;;20.80;67.90;;;;;;5057587;28;20067;-77
2021/08/19 10:20:59;;;;;;;4.88;3.90;;;20.80;67.80;;;;;;5073275;28;20464;-76
2021/08/19 10:23:26;;;;;;;4.65;3.63;;;20.90;68.20;;;;;;5073352;28;20032;-77
2021/08/19 10:26:07;;;;;;;4.60;3.17;;;20.90;67.80;;;;;;5073093;28;20460;-76
2021/08/19 10:28:48;;;;;;;4.70;3.50;;;20.90;67.90;;;;;;5073315;28;20031;-76
2021/08/19 10:31:43;;;;;;;4.60;3.38;;;20.90;67.90;;;;;;5056401;28;20134;-77
2021/08/19 10:34:11;;;;;;;4.72;3.22;;;20.90;67.90;;;;;;5090999;28;20465;-77
2021/08/19 10:36:42;;;;;;;5.35;3.63;;;20.90;67.80;;;;;;5057905;28;20526;-77
2021/08/19 10:39:36;;;;;;;5.22;3.67;;;20.90;67.90;;;;;;5091291;28;20028;-77
2021/08/19 10:42:02;;;;;;;5.50;3.70;;;21.00;68.10;;;;;;5080026;28;20036;-77
2021/08/19 10:44:44;;;;;;;5.45;3.70;;;21.00;67.90;;;;;;5073258;28;20076;-78
2021/08/19 10:47:30;;;;;;;4.30;2.92;;;21.00;68.00;;;;;;5057185;28;20162;-76
2021/08/19 10:49:55;;;;;;;4.40;3.38;;;21.00;67.90;;;;;;5062534;28;20039;-76
2021/08/19 10:53:28;;;;;;;4.80;3.35;;;21.00;68.00;;;;;;5069044;28;20512;-74
2021/08/19 10:55:55;;;;;;;4.00;3.03;;;21.00;68.10;;;;;;5062642;28;20473;-74
2021/08/19 10:58:31;;;;;;;4.70;3.40;;;21.10;68.00;;;;;;5067657;28;20036;-75
2021/08/19 11:01:13;;;;;;;4.40;3.25;;;21.10;68.00;;;;;;5034402;28;20029;-74
2021/08/19 11:03:38;;;;;;;4.47;3.38;;;21.10;67.90;;;;;;5066946;28;20025;-75
2021/08/19 11:06:19;;;;;;;4.40;3.15;;;21.10;67.90;;;;;;5068080;28;20040;-74
2021/08/19 11:08:48;;;;;;;4.47;3.38;;;21.10;68.00;;;;;;5039729;28;20025;-75
2021/08/19 11:11:35;;;;;;;4.80;3.33;;;21.10;67.90;;;;;;5050980;28;20500;-74
2021/08/19 11:14:08;;;;;;;4.70;3.42;;;21.10;68.00;;;;;;5069003;28;20090;-74
2021/08/19 11:16:35;;;;;;;5.60;3.78;;;21.20;68.00;;;;;;5068353;28;20025;-76
2021/08/19 11:19:15;;;;;;;6.22;3.70;;;21.20;67.90;;;;;;5067013;28;20032;-75
2021/08/19 11:21:43;;;;;;;5.72;3.72;;;21.20;68.10;;;;;;5050284;28;20071;-74
2021/08/19 11:24:09;;;;;;;5.03;3.60;;;21.20;68.00;;;;;;5068334;28;20037;-74
2021/08/19 11:26:35;;;;;;;4.82;3.58;;;21.20;68.00;;;;;;5066479;28;20496;-75
2021/08/19 11:29:01;;;;;;;5.38;4.13;;;21.20;67.90;;;;;;5017393;28;20052;-74
2021/08/19 11:31:26;;;;;;;4.30;3.45;;;21.20;68.10;;;;;;5047057;28;20037;-78
2021/08/19 11:34:01;;;;;;;4.70;3.63;;;21.30;68.00;;;;;;5066580;28;20044;-74
2021/08/19 11:36:28;;;;;;;5.15;3.42;;;21.30;68.10;;;;;;5050426;28;20108;-76
2021/08/19 11:39:06;;;;;;;5.40;3.53;;;21.30;68.00;;;;;;5066350;28;20162;-75
2021/08/19 11:41:32;;;;;;;5.90;3.83;;;21.30;68.00;;;;;;5066627;28;20029;-78
2021/08/19 11:44:06;;;;;;;6.13;3.80;;;21.30;67.90;;;;;;5049911;28;20024;-76
2021/08/19 11:46:33;;;;;;;4.55;3.50;;;21.30;68.10;;;;;;5067239;28;20032;-76
2021/08/19 11:49:02;;;;;;;4.95;3.58;;;21.30;68.00;;;;;;5067176;28;20032;-76
2021/08/19 11:51:31;;;;;;;5.82;3.90;;;21.30;68.00;;;;;;5067609;28;20044;-77
2021/08/19 11:54:20;;;;;;;4.40;3.50;;;21.30;68.00;;;;;;5065560;28;20091;-77
2021/08/19 11:56:47;;;;;;;4.53;3.25;;;21.30;68.00;;;;;;5066009;28;20477;-77
2021/08/19 11:59:18;;;;;;;4.70;3.50;;;21.30;68.00;;;;;;5066486;28;20029;-76
2021/08/19 12:01:49;;;;;;;4.55;3.60;;;21.30;68.10;;;;;;5049580;28;20025;-76
2021/08/19 12:04:15;;;;;;;4.18;3.20;;;21.30;68.10;;;;;;5046532;28;20033;-77
2021/08/19 12:06:41;;;;;;;5.15;3.67;;;21.40;68.10;;;;;;5036427;28;20083;-77
2021/08/19 12:09:09;;;;;;;5.03;3.90;;;21.40;68.10;;;;;;5019929;28;20025;-76
2021/08/19 12:11:43;;;;;;;4.95;3.50;;;21.40;68.10;;;;;;5036373;28;20487;-76
2021/08/19 12:14:11;;;;;;;4.95;3.45;;;21.40;68.20;;;;;;5054405;28;20037;-77
2021/08/19 12:16:45;;;;;;;5.05;3.83;;;21.40;68.10;;;;;;5053844;28;20024;-78
2021/08/19 12:19:21;;;;;;;4.57;3.65;;;21.40;68.10;;;;;;5053751;28;20151;-77
2021/08/19 12:21:53;;;;;;;4.97;3.75;;;21.40;68.20;;;;;;5052796;28;20025;-77
2021/08/19 12:24:29;;;;;;;4.88;3.45;;;21.40;68.10;;;;;;5053558;28;20025;-76
2021/08/19 12:27:00;;;;;;;4.35;3.13;;;21.40;68.10;;;;;;5052324;28;20033;-77
2021/08/19 12:29:27;;;;;;;4.63;3.30;;;21.50;68.10;;;;;;5052539;28;20143;-76
2021/08/19 12:31:52;;;;;;;5.70;3.70;;;21.50;68.10;;;;;;5019349;28;20032;-77
2021/08/19 12:34:19;;;;;;;4.32;3.50;;;21.50;68.10;;;;;;5052110;28;20120;-77
2021/08/19 12:36:45;;;;;;;4.80;3.65;;;21.50;68.10;;;;;;5035706;28;20087;-77
2021/08/19 12:39:25;;;;;;;4.95;3.83;;;21.50;68.10;;;;;;5054167;28;20024;-76
2021/08/19 12:42:06;;;;;;;5.20;3.50;;;21.50;68.20;;;;;;5020041;28;20046;-77
2021/08/19 12:44:32;;;;;;;4.50;3.30;;;21.50;68.20;;;;;;5053730;28;20025;-77
2021/08/19 12:46:58;;;;;;;4.50;3.63;;;21.50;68.00;;;;;;5052287;28;20059;-76
2021/08/19 12:49:26;;;;;;;6.20;3.15;;;21.60;68.10;;;;;;5053978;28;20052;-76
2021/08/19 12:52:15;;;;;;;4.10;3.10;;;21.60;68.10;;;;;;5051251;28;20516;-77